sensor_id;sensor_type;location;lat;lon;timestamp;pressure;altitude;pressure_sealevel;temperature;humidity
19108;BME280;9686;48.832;9.126;2024-03-23T00:55:44;97426.78;;;13.87;nan
19108;BME280;9686;48.832;9.126;2024-03-23T00:58:09;97421.69;;;13.82;nan
19108;BME280;9686;48.832;9.126;2024-03-23T01:00:34;97427.78;;;13.83;nan
19108;BME280;9686;48.832;9.126;2024-03-23T01:03:00;97421.47;;;13.62;nan
19108;BME280;9686;48.832;9.126;2024-03-23T01:05:25;97423.84;;;13.70;nan
19108;BME280;9686;48.832;9.126;2024-03-23T01:07:51;97414.69;;;13.83;nan
19108;BME280;9686;48.832;9.126;2024-03-23T01:10:16;97416.44;;;14.10;nan
19108;BME280;9686;48.832;9.126;2024-03-23T01:12:41;97409.06;;;14.22;nan
19108;BME280;9686;48.832;9.126;2024-03-23T01:15:07;97406.09;;;14.31;nan
19108;BME280;9686;48.832;9.126;2024-03-23T01:17:32;97391.97;;;14.10;nan
19108;BME280;9686;48.832;9.126;2024-03-23T01:19:58;97387.06;;;13.99;nan
19108;BME280;9686;48.832;9.126;2024-03-23T01:22:23;97383.84;;;14.17;nan
19108;BME280;9686;48.832;9.126;2024-03-23T01:24:48;97387.44;;;14.15;nan
19108;BME280;9686;48.832;9.126;2024-03-23T01:27:14;97383.91;;;14.16;nan
19108;BME280;9686;48.832;9.126;2024-03-23T01:29:39;97378.22;;;14.28;nan
19108;BME280;9686;48.832;9.126;2024-03-23T01:32:05;97377.59;;;14.48;nan
19108;BME280;9686;48.832;9.126;2024-03-23T01:34:30;97373.78;;;14.57;nan
19108;BME280;9686;48.832;9.126;2024-03-23T01:36:55;97365.38;;;14.47;nan
19108;BME280;9686;48.832;9.126;2024-03-23T01:39:21;97361.75;;;14.51;nan
19108;BME280;9686;48.832;9.126;2024-03-23T01:41:46;97360.63;;;14.58;nan
19108;BME280;9686;48.832;9.126;2024-03-23T01:44:11;97361.56;;;14.56;nan
19108;BME280;9686;48.832;9.126;2024-03-23T01:46:37;97348.38;;;14.59;nan
19108;BME280;9686;48.832;9.126;2024-03-23T01:49:04;97348.59;;;14.76;nan
19108;BME280;9686;48.832;9.126;2024-03-23T01:51:30;97344.31;;;14.73;nan
19108;BME280;9686;48.832;9.126;2024-03-23T01:53:56;97346.34;;;14.90;nan
19108;BME280;9686;48.832;9.126;2024-03-23T01:56:21;97322.09;;;14.84;nan
19108;BME280;9686;48.832;9.126;2024-03-23T01:58:47;97320.34;;;14.84;nan
19108;BME280;9686;48.832;9.126;2024-03-23T02:01:12;97316.81;;;14.85;nan
19108;BME280;9686;48.832;9.126;2024-03-23T02:03:37;97323.53;;;14.92;nan
19108;BME280;9686;48.832;9.126;2024-03-23T02:06:03;97319.97;;;14.93;nan
19108;BME280;9686;48.832;9.126;2024-03-23T02:08:29;97313.81;;;14.94;nan
19108;BME280;9686;48.832;9.126;2024-03-23T02:10:56;97312.97;;;14.94;nan
19108;BME280;9686;48.832;9.126;2024-03-23T02:13:21;97315.81;;;15.33;nan
19108;BME280;9686;48.832;9.126;2024-03-23T02:15:46;97310.03;;;15.47;nan
19108;BME280;9686;48.832;9.126;2024-03-23T02:18:11;97316.72;;;15.32;nan
19108;BME280;9686;48.832;9.126;2024-03-23T02:20:37;97303.44;;;15.36;nan
19108;BME280;9686;48.832;9.126;2024-03-23T02:23:04;97296.41;;;15.37;nan
19108;BME280;9686;48.832;9.126;2024-03-23T02:25:31;97294.31;;;15.23;nan
19108;BME280;9686;48.832;9.126;2024-03-23T02:27:56;97291.25;;;15.34;nan
19108;BME280;9686;48.832;9.126;2024-03-23T02:30:23;97290.19;;;15.39;nan
19108;BME280;9686;48.832;9.126;2024-03-23T02:32:49;97289.31;;;15.39;nan
19108;BME280;9686;48.832;9.126;2024-03-23T02:35:14;97292.50;;;15.47;nan
19108;BME280;9686;48.832;9.126;2024-03-23T02:37:39;97286.44;;;15.45;nan
19108;BME280;9686;48.832;9.126;2024-03-23T02:40:05;97292.88;;;15.60;nan
19108;BME280;9686;48.832;9.126;2024-03-23T02:42:30;97290.81;;;15.68;nan
19108;BME280;9686;48.832;9.126;2024-03-23T02:44:57;97288.03;;;15.71;nan
19108;BME280;9686;48.832;9.126;2024-03-23T02:47:23;97280.41;;;15.65;nan
19108;BME280;9686;48.832;9.126;2024-03-23T02:49:48;97276.09;;;15.84;nan
19108;BME280;9686;48.832;9.126;2024-03-23T02:52:13;97278.66;;;16.06;nan
19108;BME280;9686;48.832;9.126;2024-03-23T02:54:39;97277.81;;;16.06;nan
19108;BME280;9686;48.832;9.126;2024-03-23T02:57:04;97282.13;;;15.86;nan
19108;BME280;9686;48.832;9.126;2024-03-23T02:59:29;97280.41;;;15.85;nan
19108;BME280;9686;48.832;9.126;2024-03-23T03:01:55;97278.84;;;15.81;nan
19108;BME280;9686;48.832;9.126;2024-03-23T03:04:21;97279.69;;;15.61;nan
19108;BME280;9686;48.832;9.126;2024-03-23T03:06:49;97273.69;;;15.36;nan
19108;BME280;9686;48.832;9.126;2024-03-23T03:09:15;97268.53;;;15.55;nan
19108;BME280;9686;48.832;9.126;2024-03-23T03:11:40;97264.56;;;15.45;nan
19108;BME280;9686;48.832;9.126;2024-03-23T03:14:05;97263.41;;;15.52;nan
19108;BME280;9686;48.832;9.126;2024-03-23T03:16:33;97251.06;;;15.32;nan
19108;BME280;9686;48.832;9.126;2024-03-23T03:18:58;97250.78;;;15.39;nan
19108;BME280;9686;48.832;9.126;2024-03-23T03:21:23;97243.25;;;15.30;nan
19108;BME280;9686;48.832;9.126;2024-03-23T03:23:49;97248.63;;;15.05;nan
19108;BME280;9686;48.832;9.126;2024-03-23T03:26:16;97244.09;;;15.10;nan
19108;BME280;9686;48.832;9.126;2024-03-23T03:28:41;97242.47;;;15.06;nan
19108;BME280;9686;48.832;9.126;2024-03-23T03:31:07;97242.88;;;14.74;nan
19108;BME280;9686;48.832;9.126;2024-03-23T03:33:32;97234.72;;;15.03;nan
19108;BME280;9686;48.832;9.126;2024-03-23T03:35:57;97242.84;;;14.97;nan
19108;BME280;9686;48.832;9.126;2024-03-23T03:38:22;97241.91;;;14.98;nan
19108;BME280;9686;48.832;9.126;2024-03-23T03:40:48;97235.22;;;15.13;nan
19108;BME280;9686;48.832;9.126;2024-03-23T03:43:13;97230.78;;;15.15;nan
19108;BME280;9686;48.832;9.126;2024-03-23T03:45:38;97226.06;;;15.23;nan
19108;BME280;9686;48.832;9.126;2024-03-23T03:48:04;97224.09;;;15.28;nan
19108;BME280;9686;48.832;9.126;2024-03-23T03:50:29;97216.03;;;15.33;nan
19108;BME280;9686;48.832;9.126;2024-03-23T03:52:55;97205.28;;;15.39;nan
19108;BME280;9686;48.832;9.126;2024-03-23T03:55:20;97195.41;;;15.24;nan
19108;BME280;9686;48.832;9.126;2024-03-23T03:57:46;97189.91;;;15.08;nan
19108;BME280;9686;48.832;9.126;2024-03-23T04:00:12;97186.16;;;14.93;nan
19108;BME280;9686;48.832;9.126;2024-03-23T04:02:38;97190.34;;;14.97;nan
19108;BME280;9686;48.832;9.126;2024-03-23T04:05:04;97176.44;;;14.95;nan
19108;BME280;9686;48.832;9.126;2024-03-23T04:07:29;97175.06;;;14.87;nan
19108;BME280;9686;48.832;9.126;2024-03-23T04:09:54;97164.91;;;14.77;nan
19108;BME280;9686;48.832;9.126;2024-03-23T04:12:20;97161.06;;;14.86;nan
19108;BME280;9686;48.832;9.126;2024-03-23T04:14:45;97154.00;;;14.88;nan
19108;BME280;9686;48.832;9.126;2024-03-23T04:17:11;97156.84;;;14.82;nan
19108;BME280;9686;48.832;9.126;2024-03-23T04:19:36;97157.06;;;14.54;nan
19108;BME280;9686;48.832;9.126;2024-03-23T04:22:01;97166.19;;;14.89;nan
19108;BME280;9686;48.832;9.126;2024-03-23T04:24:27;97186.38;;;14.65;nan
19108;BME280;9686;48.832;9.126;2024-03-23T04:26:52;97237.03;;;14.42;nan
19108;BME280;9686;48.832;9.126;2024-03-23T04:29:18;97252.81;;;14.66;nan
19108;BME280;9686;48.832;9.126;2024-03-23T04:31:43;97254.06;;;14.31;nan
19108;BME280;9686;48.832;9.126;2024-03-23T04:34:08;97253.66;;;14.18;nan
19108;BME280;9686;48.832;9.126;2024-03-23T04:36:34;97257.34;;;14.12;nan
19108;BME280;9686;48.832;9.126;2024-03-23T04:38:59;97255.69;;;14.10;nan
19108;BME280;9686;48.832;9.126;2024-03-23T04:41:25;97248.13;;;14.26;nan
19108;BME280;9686;48.832;9.126;2024-03-23T04:43:51;97259.69;;;13.95;nan
19108;BME280;9686;48.832;9.126;2024-03-23T04:46:16;97236.09;;;14.45;nan
19108;BME280;9686;48.832;9.126;2024-03-23T04:48:42;97250.63;;;14.29;nan
19108;BME280;9686;48.832;9.126;2024-03-23T04:51:09;97253.72;;;14.16;nan
19108;BME280;9686;48.832;9.126;2024-03-23T04:53:36;97253.50;;;13.98;nan
19108;BME280;9686;48.832;9.126;2024-03-23T04:56:02;97251.84;;;13.95;nan
19108;BME280;9686;48.832;9.126;2024-03-23T04:58:29;97249.38;;;13.91;nan
19108;BME280;9686;48.832;9.126;2024-03-23T05:00:57;97255.69;;;14.10;nan
19108;BME280;9686;48.832;9.126;2024-03-23T05:03:23;97256.00;;;14.01;nan
19108;BME280;9686;48.832;9.126;2024-03-23T05:05:49;97253.59;;;13.95;nan
19108;BME280;9686;48.832;9.126;2024-03-23T05:08:15;97252.53;;;14.00;nan
19108;BME280;9686;48.832;9.126;2024-03-23T05:10:42;97260.63;;;13.94;nan
19108;BME280;9686;48.832;9.126;2024-03-23T05:13:07;97257.72;;;13.77;nan
19108;BME280;9686;48.832;9.126;2024-03-23T05:15:32;97263.00;;;13.75;nan
19108;BME280;9686;48.832;9.126;2024-03-23T05:17:58;97251.63;;;13.76;nan
19108;BME280;9686;48.832;9.126;2024-03-23T05:20:23;97259.63;;;13.72;nan
19108;BME280;9686;48.832;9.126;2024-03-23T05:22:49;97270.09;;;13.72;nan
19108;BME280;9686;48.832;9.126;2024-03-23T05:25:14;97277.97;;;13.72;nan
19108;BME280;9686;48.832;9.126;2024-03-23T05:27:41;97269.47;;;13.65;nan
19108;BME280;9686;48.832;9.126;2024-03-23T05:30:07;97263.72;;;13.80;nan
19108;BME280;9686;48.832;9.126;2024-03-23T05:32:32;97263.56;;;13.85;nan
19108;BME280;9686;48.832;9.126;2024-03-23T05:34:57;97266.69;;;13.70;nan
19108;BME280;9686;48.832;9.126;2024-03-23T05:37:23;97271.00;;;13.71;nan
19108;BME280;9686;48.832;9.126;2024-03-23T05:39:49;97267.38;;;13.75;nan
19108;BME280;9686;48.832;9.126;2024-03-23T05:42:18;97285.03;;;13.70;nan
19108;BME280;9686;48.832;9.126;2024-03-23T05:44:44;97293.88;;;13.66;nan
19108;BME280;9686;48.832;9.126;2024-03-23T05:47:10;97310.72;;;13.58;nan
19108;BME280;9686;48.832;9.126;2024-03-23T05:49:35;97327.63;;;13.48;nan
19108;BME280;9686;48.832;9.126;2024-03-23T05:52:00;97330.66;;;13.63;nan
19108;BME280;9686;48.832;9.126;2024-03-23T05:54:28;97315.69;;;13.66;nan
19108;BME280;9686;48.832;9.126;2024-03-23T05:56:55;97321.63;;;13.45;nan
19108;BME280;9686;48.832;9.126;2024-03-23T05:59:20;97309.94;;;13.29;nan
19108;BME280;9686;48.832;9.126;2024-03-23T06:01:46;97322.50;;;13.16;nan
19108;BME280;9686;48.832;9.126;2024-03-23T06:04:12;97313.75;;;12.87;nan
19108;BME280;9686;48.832;9.126;2024-03-23T06:06:38;97320.34;;;13.01;nan
19108;BME280;9686;48.832;9.126;2024-03-23T06:09:03;97332.41;;;13.06;nan
19108;BME280;9686;48.832;9.126;2024-03-23T06:11:28;97326.56;;;12.96;nan
19108;BME280;9686;48.832;9.126;2024-03-23T06:13:54;97338.44;;;12.79;nan
19108;BME280;9686;48.832;9.126;2024-03-23T06:16:20;97338.41;;;12.49;nan
19108;BME280;9686;48.832;9.126;2024-03-23T06:18:48;97345.59;;;12.72;nan
19108;BME280;9686;48.832;9.126;2024-03-23T06:21:14;97348.88;;;12.49;nan
19108;BME280;9686;48.832;9.126;2024-03-23T06:23:40;97331.44;;;12.50;nan
19108;BME280;9686;48.832;9.126;2024-03-23T06:26:06;97334.31;;;12.39;nan
19108;BME280;9686;48.832;9.126;2024-03-23T06:28:31;97347.97;;;12.49;nan
19108;BME280;9686;48.832;9.126;2024-03-23T06:30:56;97363.03;;;12.41;nan
19108;BME280;9686;48.832;9.126;2024-03-23T06:33:21;97387.50;;;12.38;nan
19108;BME280;9686;48.832;9.126;2024-03-23T06:35:51;97390.75;;;12.46;nan
19108;BME280;9686;48.832;9.126;2024-03-23T06:38:17;97399.34;;;12.51;nan
19108;BME280;9686;48.832;9.126;2024-03-23T06:40:43;97399.09;;;12.60;nan
19108;BME280;9686;48.832;9.126;2024-03-23T06:43:12;97402.97;;;12.46;nan
19108;BME280;9686;48.832;9.126;2024-03-23T06:45:38;97408.31;;;12.41;nan
19108;BME280;9686;48.832;9.126;2024-03-23T06:48:03;97412.38;;;12.53;nan
19108;BME280;9686;48.832;9.126;2024-03-23T06:50:29;97424.50;;;12.55;nan
19108;BME280;9686;48.832;9.126;2024-03-23T06:52:54;97413.19;;;12.55;nan
19108;BME280;9686;48.832;9.126;2024-03-23T06:55:19;97418.19;;;12.62;nan
19108;BME280;9686;48.832;9.126;2024-03-23T06:57:44;97425.31;;;12.57;nan
19108;BME280;9686;48.832;9.126;2024-03-23T07:00:11;97418.88;;;12.69;nan
19108;BME280;9686;48.832;9.126;2024-03-23T07:02:36;97452.53;;;12.50;nan
19108;BME280;9686;48.832;9.126;2024-03-23T07:05:01;97447.47;;;12.43;nan
19108;BME280;9686;48.832;9.126;2024-03-23T07:07:28;97459.53;;;12.48;nan
19108;BME280;9686;48.832;9.126;2024-03-23T07:09:55;97457.28;;;12.34;nan
19108;BME280;9686;48.832;9.126;2024-03-23T07:12:20;97469.97;;;12.50;nan
19108;BME280;9686;48.832;9.126;2024-03-23T07:14:46;97486.97;;;12.66;nan
19108;BME280;9686;48.832;9.126;2024-03-23T07:17:11;97484.59;;;12.57;nan
19108;BME280;9686;48.832;9.126;2024-03-23T07:19:36;97499.09;;;12.69;nan
19108;BME280;9686;48.832;9.126;2024-03-23T07:22:02;97502.25;;;12.81;nan
19108;BME280;9686;48.832;9.126;2024-03-23T07:24:27;97502.56;;;12.69;nan
19108;BME280;9686;48.832;9.126;2024-03-23T07:26:52;97506.25;;;12.62;nan
19108;BME280;9686;48.832;9.126;2024-03-23T07:29:19;97510.31;;;12.72;nan
19108;BME280;9686;48.832;9.126;2024-03-23T07:31:44;97507.41;;;12.84;nan
19108;BME280;9686;48.832;9.126;2024-03-23T07:34:10;97509.34;;;12.78;nan
19108;BME280;9686;48.832;9.126;2024-03-23T07:36:35;97506.13;;;12.66;nan
19108;BME280;9686;48.832;9.126;2024-03-23T07:39:00;97524.22;;;12.76;nan
19108;BME280;9686;48.832;9.126;2024-03-23T07:41:26;97533.09;;;12.69;nan
19108;BME280;9686;48.832;9.126;2024-03-23T07:43:53;97548.00;;;12.65;nan
19108;BME280;9686;48.832;9.126;2024-03-23T07:46:20;97538.28;;;12.70;nan
19108;BME280;9686;48.832;9.126;2024-03-23T07:48:46;97549.09;;;12.90;nan
19108;BME280;9686;48.832;9.126;2024-03-23T07:51:21;97554.53;;;12.47;nan
19108;BME280;9686;48.832;9.126;2024-03-23T07:53:46;97566.03;;;12.40;nan
19108;BME280;9686;48.832;9.126;2024-03-23T07:56:13;97570.41;;;12.02;nan
19108;BME280;9686;48.832;9.126;2024-03-23T07:58:40;97573.97;;;11.98;nan
19108;BME280;9686;48.832;9.126;2024-03-23T08:01:10;97583.69;;;11.90;nan
19108;BME280;9686;48.832;9.126;2024-03-23T08:03:40;97583.22;;;11.71;nan
19108;BME280;9686;48.832;9.126;2024-03-23T08:06:26;97579.19;;;11.98;nan
19108;BME280;9686;48.832;9.126;2024-03-23T08:08:55;97583.66;;;11.92;nan
19108;BME280;9686;48.832;9.126;2024-03-23T08:11:31;97593.16;;;11.97;nan
19108;BME280;9686;48.832;9.126;2024-03-23T08:13:57;97607.66;;;11.67;nan
19108;BME280;9686;48.832;9.126;2024-03-23T08:16:23;97619.03;;;11.63;nan
19108;BME280;9686;48.832;9.126;2024-03-23T08:18:51;97627.31;;;11.87;nan
19108;BME280;9686;48.832;9.126;2024-03-23T08:21:16;97620.56;;;11.75;nan
19108;BME280;9686;48.832;9.126;2024-03-23T08:23:42;97617.53;;;11.52;nan
19108;BME280;9686;48.832;9.126;2024-03-23T08:26:08;97613.09;;;11.57;nan
19108;BME280;9686;48.832;9.126;2024-03-23T08:28:34;97628.13;;;11.46;nan
19108;BME280;9686;48.832;9.126;2024-03-23T08:31:10;97633.41;;;11.39;nan
19108;BME280;9686;48.832;9.126;2024-03-23T08:33:36;97656.41;;;11.21;nan
19108;BME280;9686;48.832;9.126;2024-03-23T08:36:04;97673.34;;;11.44;nan
19108;BME280;9686;48.832;9.126;2024-03-23T08:38:30;97681.59;;;11.68;nan
19108;BME280;9686;48.832;9.126;2024-03-23T08:41:03;97688.03;;;11.96;nan
19108;BME280;9686;48.832;9.126;2024-03-23T08:43:29;97688.94;;;11.95;nan
19108;BME280;9686;48.832;9.126;2024-03-23T08:46:24;97696.41;;;11.67;nan
19108;BME280;9686;48.832;9.126;2024-03-23T08:48:48;97713.38;;;11.45;nan
19108;BME280;9686;48.832;9.126;2024-03-23T08:51:15;97707.59;;;11.26;nan
19108;BME280;9686;48.832;9.126;2024-03-23T08:53:41;97699.75;;;10.74;nan
19108;BME280;9686;48.832;9.126;2024-03-23T08:56:07;97689.41;;;10.69;nan
19108;BME280;9686;48.832;9.126;2024-03-23T08:58:34;97694.47;;;10.77;nan
19108;BME280;9686;48.832;9.126;2024-03-23T09:03:32;97691.31;;;11.12;nan
19108;BME280;9686;48.832;9.126;2024-03-23T09:05:58;97707.84;;;11.11;nan
19108;BME280;9686;48.832;9.126;2024-03-23T09:08:24;97721.19;;;10.91;nan
19108;BME280;9686;48.832;9.126;2024-03-23T09:10:50;97720.25;;;10.97;nan
19108;BME280;9686;48.832;9.126;2024-03-23T09:13:15;97741.22;;;10.89;nan
19108;BME280;9686;48.832;9.126;2024-03-23T09:15:51;97738.19;;;11.15;nan
19108;BME280;9686;48.832;9.126;2024-03-23T09:18:21;97744.69;;;11.43;nan
19108;BME280;9686;48.832;9.126;2024-03-23T09:20:46;97763.94;;;11.89;nan
19108;BME280;9686;48.832;9.126;2024-03-23T09:23:12;97771.09;;;11.78;nan
19108;BME280;9686;48.832;9.126;2024-03-23T09:25:38;97762.41;;;11.79;nan
19108;BME280;9686;48.832;9.126;2024-03-23T09:28:07;97761.41;;;11.84;nan
19108;BME280;9686;48.832;9.126;2024-03-23T09:30:34;97758.75;;;12.32;nan
19108;BME280;9686;48.832;9.126;2024-03-23T09:33:00;97753.22;;;12.46;nan
19108;BME280;9686;48.832;9.126;2024-03-23T09:35:26;97758.19;;;12.59;nan
19108;BME280;9686;48.832;9.126;2024-03-23T09:37:51;97759.03;;;12.60;nan
19108;BME280;9686;48.832;9.126;2024-03-23T09:40:16;97759.59;;;12.76;nan
19108;BME280;9686;48.832;9.126;2024-03-23T09:42:42;97762.38;;;12.66;nan
19108;BME280;9686;48.832;9.126;2024-03-23T09:45:19;97759.69;;;12.70;nan
19108;BME280;9686;48.832;9.126;2024-03-23T09:47:45;97749.16;;;12.73;nan
19108;BME280;9686;48.832;9.126;2024-03-23T09:50:12;97749.66;;;12.90;nan
19108;BME280;9686;48.832;9.126;2024-03-23T09:52:38;97746.28;;;12.85;nan
19108;BME280;9686;48.832;9.126;2024-03-23T09:55:04;97748.69;;;12.55;nan
19108;BME280;9686;48.832;9.126;2024-03-23T09:57:29;97753.44;;;12.78;nan
19108;BME280;9686;48.832;9.126;2024-03-23T09:59:54;97752.19;;;12.93;nan
19108;BME280;9686;48.832;9.126;2024-03-23T10:02:21;97750.66;;;12.84;nan
19108;BME280;9686;48.832;9.126;2024-03-23T10:04:47;97755.16;;;12.79;nan
19108;BME280;9686;48.832;9.126;2024-03-23T10:07:14;97755.56;;;12.98;nan
19108;BME280;9686;48.832;9.126;2024-03-23T10:09:40;97748.47;;;13.05;nan
19108;BME280;9686;48.832;9.126;2024-03-23T10:12:13;97739.75;;;13.04;nan
19108;BME280;9686;48.832;9.126;2024-03-23T10:14:39;97733.66;;;13.41;nan
19108;BME280;9686;48.832;9.126;2024-03-23T10:17:15;97720.91;;;13.61;nan
19108;BME280;9686;48.832;9.126;2024-03-23T10:19:45;97720.72;;;13.69;nan
19108;BME280;9686;48.832;9.126;2024-03-23T10:22:13;97734.88;;;13.27;nan
19108;BME280;9686;48.832;9.126;2024-03-23T10:24:39;97726.84;;;13.34;nan
19108;BME280;9686;48.832;9.126;2024-03-23T10:27:04;97727.06;;;13.24;nan
19108;BME280;9686;48.832;9.126;2024-03-23T10:29:29;97718.06;;;13.36;nan
19108;BME280;9686;48.832;9.126;2024-03-23T10:32:07;97714.69;;;13.65;nan
19108;BME280;9686;48.832;9.126;2024-03-23T10:34:33;97714.75;;;13.64;nan
19108;BME280;9686;48.832;9.126;2024-03-23T10:37:00;97718.34;;;13.60;nan
19108;BME280;9686;48.832;9.126;2024-03-23T10:39:26;97716.03;;;13.81;nan
19108;BME280;9686;48.832;9.126;2024-03-23T10:41:53;97727.47;;;13.43;nan
19108;BME280;9686;48.832;9.126;2024-03-23T10:44:19;97741.25;;;13.14;nan
19108;BME280;9686;48.832;9.126;2024-03-23T10:46:45;97776.13;;;12.76;nan
19108;BME280;9686;48.832;9.126;2024-03-23T10:49:10;97791.78;;;12.36;nan
19108;BME280;9686;48.832;9.126;2024-03-23T10:51:35;97813.13;;;12.13;nan
19108;BME280;9686;48.832;9.126;2024-03-23T10:54:04;97828.19;;;11.47;nan
19108;BME280;9686;48.832;9.126;2024-03-23T10:56:31;97844.78;;;10.79;nan
19108;BME280;9686;48.832;9.126;2024-03-23T10:59:00;97866.97;;;10.42;nan
19108;BME280;9686;48.832;9.126;2024-03-23T11:01:26;97876.31;;;9.68;nan
19108;BME280;9686;48.832;9.126;2024-03-23T11:03:52;97881.47;;;9.72;nan
19108;BME280;9686;48.832;9.126;2024-03-23T11:06:36;97866.84;;;9.56;nan
19108;BME280;9686;48.832;9.126;2024-03-23T11:09:02;97850.38;;;9.55;nan
19108;BME280;9686;48.832;9.126;2024-03-23T11:11:28;97840.56;;;9.86;nan
19108;BME280;9686;48.832;9.126;2024-03-23T11:13:56;97833.53;;;9.96;nan
19108;BME280;9686;48.832;9.126;2024-03-23T11:16:28;97825.66;;;10.04;nan
19108;BME280;9686;48.832;9.126;2024-03-23T11:19:34;97812.56;;;10.08;nan
19108;BME280;9686;48.832;9.126;2024-03-23T11:22:01;97814.91;;;10.36;nan
19108;BME280;9686;48.832;9.126;2024-03-23T11:24:28;97813.84;;;10.54;nan
19108;BME280;9686;48.832;9.126;2024-03-23T11:26:54;97809.50;;;10.53;nan
19108;BME280;9686;48.832;9.126;2024-03-23T11:29:19;97815.16;;;10.85;nan
19108;BME280;9686;48.832;9.126;2024-03-23T11:31:48;97813.06;;;11.10;nan
19108;BME280;9686;48.832;9.126;2024-03-23T11:34:17;97815.56;;;11.16;nan
19108;BME280;9686;48.832;9.126;2024-03-23T11:36:43;97813.25;;;12.07;nan
19108;BME280;9686;48.832;9.126;2024-03-23T11:39:16;97797.91;;;11.89;nan
19108;BME280;9686;48.832;9.126;2024-03-23T11:41:52;97801.38;;;12.35;nan
19108;BME280;9686;48.832;9.126;2024-03-23T11:44:19;97794.84;;;12.56;nan
19108;BME280;9686;48.832;9.126;2024-03-23T11:46:45;97786.38;;;12.44;nan
19108;BME280;9686;48.832;9.126;2024-03-23T11:49:23;97777.31;;;12.61;nan
19108;BME280;9686;48.832;9.126;2024-03-23T11:51:49;97784.44;;;12.55;nan
19108;BME280;9686;48.832;9.126;2024-03-23T11:54:15;97782.56;;;12.17;nan
19108;BME280;9686;48.832;9.126;2024-03-23T11:56:40;97775.50;;;12.65;nan
19108;BME280;9686;48.832;9.126;2024-03-23T11:59:06;97779.53;;;12.38;nan
19108;BME280;9686;48.832;9.126;2024-03-23T12:01:32;97776.97;;;12.37;nan
19108;BME280;9686;48.832;9.126;2024-03-23T12:03:57;97782.38;;;12.27;nan
19108;BME280;9686;48.832;9.126;2024-03-23T12:06:22;97771.66;;;11.95;nan
19108;BME280;9686;48.832;9.126;2024-03-23T12:08:48;97775.66;;;12.14;nan
19108;BME280;9686;48.832;9.126;2024-03-23T12:11:17;97765.06;;;12.20;nan
19108;BME280;9686;48.832;9.126;2024-03-23T12:13:45;97768.16;;;12.82;nan
19108;BME280;9686;48.832;9.126;2024-03-23T12:16:17;97752.47;;;13.56;nan
19108;BME280;9686;48.832;9.126;2024-03-23T12:18:43;97750.84;;;13.51;nan
19108;BME280;9686;48.832;9.126;2024-03-23T12:21:09;97752.69;;;13.81;nan
19108;BME280;9686;48.832;9.126;2024-03-23T12:23:35;97753.59;;;13.79;nan
19108;BME280;9686;48.832;9.126;2024-03-23T12:26:00;97751.47;;;13.61;nan
19108;BME280;9686;48.832;9.126;2024-03-23T12:28:27;97751.03;;;13.43;nan
19108;BME280;9686;48.832;9.126;2024-03-23T12:30:52;97737.69;;;13.17;nan
19108;BME280;9686;48.832;9.126;2024-03-23T12:33:19;97740.69;;;13.02;nan
19108;BME280;9686;48.832;9.126;2024-03-23T12:35:44;97741.13;;;13.20;nan
19108;BME280;9686;48.832;9.126;2024-03-23T12:38:09;97738.88;;;13.41;nan
19108;BME280;9686;48.832;9.126;2024-03-23T12:40:35;97739.56;;;13.12;nan
19108;BME280;9686;48.832;9.126;2024-03-23T12:43:00;97746.75;;;13.04;nan
19108;BME280;9686;48.832;9.126;2024-03-23T12:45:25;97746.00;;;12.97;nan
19108;BME280;9686;48.832;9.126;2024-03-23T12:47:50;97752.28;;;12.51;nan
19108;BME280;9686;48.832;9.126;2024-03-23T12:50:19;97758.94;;;13.05;nan
19108;BME280;9686;48.832;9.126;2024-03-23T12:52:44;97760.75;;;13.00;nan
19108;BME280;9686;48.832;9.126;2024-03-23T12:55:09;97751.91;;;13.07;nan
19108;BME280;9686;48.832;9.126;2024-03-23T12:57:35;97747.56;;;12.67;nan
19108;BME280;9686;48.832;9.126;2024-03-23T13:00:01;97749.38;;;12.63;nan
19108;BME280;9686;48.832;9.126;2024-03-23T13:02:26;97745.03;;;12.62;nan
19108;BME280;9686;48.832;9.126;2024-03-23T13:04:52;97735.03;;;12.81;nan
19108;BME280;9686;48.832;9.126;2024-03-23T13:07:19;97725.69;;;13.45;nan
19108;BME280;9686;48.832;9.126;2024-03-23T13:09:45;97731.75;;;13.10;nan
19108;BME280;9686;48.832;9.126;2024-03-23T13:12:10;97727.44;;;13.45;nan
19108;BME280;9686;48.832;9.126;2024-03-23T13:14:39;97716.75;;;13.54;nan
19108;BME280;9686;48.832;9.126;2024-03-23T13:17:05;97727.28;;;13.51;nan
19108;BME280;9686;48.832;9.126;2024-03-23T13:19:31;97717.19;;;13.70;nan
19108;BME280;9686;48.832;9.126;2024-03-23T13:22:00;97714.13;;;13.86;nan
19108;BME280;9686;48.832;9.126;2024-03-23T13:24:27;97721.97;;;13.86;nan
19108;BME280;9686;48.832;9.126;2024-03-23T13:26:54;97696.66;;;13.53;nan
19108;BME280;9686;48.832;9.126;2024-03-23T13:29:19;97695.97;;;13.46;nan
19108;BME280;9686;48.832;9.126;2024-03-23T13:31:46;97693.47;;;13.42;nan
19108;BME280;9686;48.832;9.126;2024-03-23T13:34:12;97680.47;;;13.71;nan
19108;BME280;9686;48.832;9.126;2024-03-23T13:36:40;97672.78;;;13.33;nan
19108;BME280;9686;48.832;9.126;2024-03-23T13:39:05;97682.09;;;13.43;nan
19108;BME280;9686;48.832;9.126;2024-03-23T13:41:44;97672.50;;;14.36;nan
19108;BME280;9686;48.832;9.126;2024-03-23T13:44:11;97665.16;;;14.49;nan
19108;BME280;9686;48.832;9.126;2024-03-23T13:46:37;97669.59;;;14.75;nan
19108;BME280;9686;48.832;9.126;2024-03-23T13:49:03;97677.31;;;14.79;nan
19108;BME280;9686;48.832;9.126;2024-03-23T13:51:28;97693.06;;;14.52;nan
19108;BME280;9686;48.832;9.126;2024-03-23T13:53:54;97700.47;;;14.67;nan
19108;BME280;9686;48.832;9.126;2024-03-23T13:56:22;97740.97;;;13.26;nan
19108;BME280;9686;48.832;9.126;2024-03-23T13:58:47;97754.09;;;12.04;nan
19108;BME280;9686;48.832;9.126;2024-03-23T14:01:14;97764.50;;;11.03;nan
19108;BME280;9686;48.832;9.126;2024-03-23T14:03:39;97782.88;;;10.92;nan
19108;BME280;9686;48.832;9.126;2024-03-23T14:06:05;97791.13;;;10.62;nan
19108;BME280;9686;48.832;9.126;2024-03-23T14:08:32;97813.81;;;9.71;nan
19108;BME280;9686;48.832;9.126;2024-03-23T14:10:59;97819.16;;;9.54;nan
19108;BME280;9686;48.832;9.126;2024-03-23T14:13:24;97797.59;;;9.43;nan
19108;BME280;9686;48.832;9.126;2024-03-23T14:15:56;97820.97;;;9.46;nan
19108;BME280;9686;48.832;9.126;2024-03-23T14:18:21;97835.13;;;9.02;nan
19108;BME280;9686;48.832;9.126;2024-03-23T14:20:51;97831.00;;;8.66;nan
19108;BME280;9686;48.832;9.126;2024-03-23T14:23:16;97806.59;;;8.93;nan
19108;BME280;9686;48.832;9.126;2024-03-23T14:25:42;97776.94;;;9.21;nan
19108;BME280;9686;48.832;9.126;2024-03-23T14:28:07;97772.34;;;9.51;nan